Bookmark and Share
Track history (hours):
 

Jonni Ritscher

Last reported at 2014-Apr-18 15:32 UTC. Time now 2014-Apr-18 16:18 UTC.
Position N 51°53' E 004°24'.

Length 178 m; draft 8.1 m.

Type: Ship. MMSI: 636091136.

NotesDate/timePositionNaut miles runAvg speedWind from/ knotsBaromVisibWave heightAir tempDewpointWater temp
2014-Apr-18 15:32N 51°53' E 004°24'0 0.0
2014-Apr-18 14:33N 51°53' E 004°24'0 0.5
2014-Apr-18 13:33N 51°53' E 004°24'9 9.2
2014-Apr-18 12:33N 51°57' E 004°11'4 3.5
2014-Apr-18 11:33N 51°57' E 004°05'1 1.2
2014-Apr-18 10:24N 51°57' E 004°03'0 0.0
2014-Apr-18 09:32N 51°57' E 004°03'0 0.0
2014-Apr-18 08:23N 51°57' E 004°03'0 0.0
2014-Apr-18 07:16N 51°57' E 004°03'0 0.0
2014-Apr-18 06:31N 51°57' E 004°03'0 0.0
2014-Apr-18 05:22N 51°57' E 004°03'0 0.0
2014-Apr-18 04:24N 51°57' E 004°03'0 0.0
2014-Apr-18 03:30N 51°57' E 004°03'0 0.0
2014-Apr-18 02:26N 51°57' E 004°03'0 0.0
2014-Apr-18 01:32N 51°57' E 004°03'0 0.0
2014-Apr-18 00:32N 51°57' E 004°03'0 0.0
2014-Apr-17 23:28N 51°57' E 004°03'0 0.0
2014-Apr-17 22:31N 51°57' E 004°03'0 0.0
2014-Apr-17 21:33N 51°57' E 004°03'0 0.0
2014-Apr-17 20:33N 51°57' E 004°03'0 0.0
2014-Apr-17 19:32N 51°57' E 004°03'0 0.0
2014-Apr-17 18:26N 51°57' E 004°03'0 0.0
2014-Apr-17 17:31N 51°57' E 004°03'0 0.0
2014-Apr-17 16:31N 51°57' E 004°03'0 0.0
2014-Apr-17 15:31N 51°57' E 004°03'1 0.9
2014-Apr-17 14:33N 51°57' E 004°04'8 8.3
2014-Apr-17 13:33N 52°00' E 003°52'9 9.1
2014-Apr-17 12:33N 52°08' E 003°44'1 0.5
2014-Apr-17 10:27N 52°09' E 003°43'0 0.3
2014-Apr-17 09:24N 52°09' E 003°44'0 0.2
2014-Apr-17 08:32N 52°09' E 003°44'0 0.0
2014-Apr-17 07:32N 52°09' E 003°44'2 2.3
2014-Apr-17 06:33N 52°12' E 003°45'1211.6
2014-Apr-17 05:33N 52°23' E 003°49'1111.3
2014-Apr-17 04:33N 52°34' E 003°52'1110.9
2014-Apr-17 03:34N 52°45' E 003°56'1111.4
2014-Apr-17 02:34N 52°56' E 003°60'1312.6
2014-Apr-17 01:33N 53°05' E 004°14'1313.0
2014-Apr-17 00:33N 53°16' E 004°27'1313.4
2014-Apr-16 23:33N 53°28' E 004°34'1313.0
2014-Apr-16 22:34N 53°41' E 004°41'1312.5
2014-Apr-16 21:33N 53°52' E 004°48'1212.4
2014-Apr-16 20:33N 54°04' E 004°54'3912.4
2014-Apr-16 17:26N 54°34' E 005°36'1413.1
2014-Apr-16 16:22N 54°46' E 005°49'1013.0
2014-Apr-16 15:33N 54°56' E 005°58'1313.0
2014-Apr-16 14:33N 55°07' E 006°09'1313.3
2014-Apr-16 13:33N 55°18' E 006°21'9713.5
2014-Apr-16 06:20N 56°43' E 007°47'2714.4
2014-Apr-16 04:26N 57°07' E 008°12'1213.6
2014-Apr-16 03:33N 57°16' E 008°25'1413.9
2014-Apr-16 02:33N 57°25' E 008°45'1414.0
2014-Apr-16 01:33N 57°34' E 009°05'1413.7
2014-Apr-16 00:34N 57°41' E 009°26'1413.6
2014-Apr-15 23:34N 57°47' E 009°49'1313.4
2014-Apr-15 22:34N 57°50' E 010°14'1413.7
2014-Apr-15 21:33N 57°50' E 010°40'1313.4
2014-Apr-15 20:33N 57°41' E 010°59'1313.4
2014-Apr-15 19:33N 57°32' E 011°18'1313.0
2014-Apr-15 18:33N 57°21' E 011°30'1312.8
2014-Apr-15 17:33N 57°09' E 011°38'1312.8
2014-Apr-15 16:31N 56°57' E 011°46'1212.8
2014-Apr-15 15:33N 56°45' E 011°54'1413.2
2014-Apr-15 14:31N 56°33' E 011°41'12110.1
2014-Apr-15 02:34N 54°33' E 011°24'1413.8
2014-Apr-15 01:34N 54°27' E 011°46'1313.5
2014-Apr-15 00:34N 54°27' E 012°09'1413.6
2014-Apr-14 23:34N 54°38' E 012°22'1413.9
2014-Apr-14 22:34N 54°45' E 012°42'1414.4
2014-Apr-14 21:34N 54°52' E 013°04'1414.5
2014-Apr-14 20:34N 54°57' E 013°28'1514.6
2014-Apr-14 19:34N 55°02' E 013°52'1413.9
2014-Apr-14 18:34N 55°10' E 014°12'3014.8
2014-Apr-14 16:34N 55°31' E 014°49'1918.8
2014-Apr-14 15:33N 55°40' E 015°18'3919.6
2014-Apr-14 13:33N 55°59' E 016°18'30418.8
2014-Apr-13 21:21N 59°35' E 022°59'1416.6
2014-Apr-13 20:31N 59°39' E 023°26'1616.6
2014-Apr-13 19:33N 59°44' E 023°56'1616.6
2014-Apr-13 18:34N 59°47' E 024°28'1716.7
2014-Apr-13 17:33N 59°51' E 025°01'15115.1
2014-Apr-13 07:32N 59°55' E 030°02'6 6.0
2014-Apr-13 06:33N 59°54' E 030°13'0 0.1
2014-Apr-13 05:22N 59°54' E 030°14'0 0.0
2014-Apr-13 04:28N 59°54' E 030°14'0 0.0
2014-Apr-13 02:27N 59°54' E 030°14'0 0.0
2014-Apr-13 01:08N 59°54' E 030°14'0 0.1
2014-Apr-13 00:32N 59°54' E 030°14'0 0.0
2014-Apr-12 23:20N 59°54' E 030°14'0 0.0
2014-Apr-12 20:33N 59°54' E 030°14'0 0.0
2014-Apr-12 19:33N 59°54' E 030°14'0 0.1
2014-Apr-12 18:27N 59°54' E 030°14'0 0.0
2014-Apr-12 17:32N 59°54' E 030°14'0 0.1
2014-Apr-12 16:05N 59°54' E 030°14'0 0.1
2014-Apr-12 15:25N 59°54' E 030°14'0 0.0
2014-Apr-12 14:22N 59°54' E 030°14'0 0.0
2014-Apr-12 13:33N 59°54' E 030°14'0 0.1
2014-Apr-12 12:21N 59°54' E 030°14'0 0.1
2014-Apr-12 11:33N 59°54' E 030°14'0 0.1
2014-Apr-12 10:32N 59°54' E 030°14'0 0.1
2014-Apr-12 09:20N 59°54' E 030°14'1 1.7
2014-Apr-12 08:32N 59°53' E 030°11'0 0.1
2014-Apr-12 07:33N 59°53' E 030°11'0 0.1
2014-Apr-12 06:31N 59°53' E 030°12'0 0.0
2014-Apr-12 05:33N 59°53' E 030°12'0 0.1
2014-Apr-12 04:30N 59°53' E 030°11'0 0.0
2014-Apr-12 03:32N 59°53' E 030°11'0 0.0
2014-Apr-12 02:32N 59°53' E 030°11'0 0.0
2014-Apr-12 01:32N 59°53' E 030°11'0 0.0
2014-Apr-12 00:31N 59°53' E 030°11'0 0.1
2014-Apr-11 23:22N 59°53' E 030°12'0 0.1
2014-Apr-11 22:33N 59°53' E 030°11'0 0.1
2014-Apr-11 21:33N 59°53' E 030°12'0 0.0
2014-Apr-11 20:32N 59°53' E 030°12'0 0.1
2014-Apr-11 19:32N 59°53' E 030°11'0 0.0
2014-Apr-11 18:25N 59°53' E 030°11'0 0.1
2014-Apr-11 17:31N 59°53' E 030°12'0 0.1
2014-Apr-11 16:31N 59°53' E 030°11'0 0.0
2014-Apr-11 15:30N 59°53' E 030°11'0 0.0
2014-Apr-11 14:30N 59°53' E 030°11'0 0.1
2014-Apr-11 13:29N 59°53' E 030°12'101 8.3
2014-Apr-11 01:22N 59°58' E 026°51'1113.3
2014-Apr-11 00:33N 59°58' E 026°29'1413.7
2014-Apr-10 23:33N 59°54' E 026°03'4012.9
2014-Apr-10 20:28N 59°31' E 024°59'4 0.2
2014-Apr-10 00:33N 59°35' E 025°01'0 0.2
2014-Apr-09 23:28N 59°35' E 025°01'0 0.0
2014-Apr-09 22:28N 59°35' E 025°01'0 0.0
2014-Apr-09 21:24N 59°35' E 025°01'0 0.0
2014-Apr-09 20:33N 59°35' E 025°01'0 0.0
2014-Apr-09 19:32N 59°35' E 025°01'0 0.0
2014-Apr-09 18:29N 59°35' E 025°01'0 0.0
2014-Apr-09 17:31N 59°35' E 025°01'0 0.0
2014-Apr-09 16:25N 59°35' E 025°01'0 0.0
2014-Apr-09 15:28N 59°35' E 025°01'0 0.0
2014-Apr-09 14:33N 59°35' E 025°01'0 0.0
2014-Apr-09 13:33N 59°35' E 025°01'0 0.0
2014-Apr-09 12:32N 59°35' E 025°01'0 0.0
2014-Apr-09 11:32N 59°35' E 025°01'0 0.0
2014-Apr-09 10:31N 59°35' E 025°01'0 0.0
2014-Apr-09 09:33N 59°35' E 025°01'4 4.3
2014-Apr-09 08:33N 59°36' E 024°52'1212.4
2014-Apr-09 07:33N 59°43' E 024°31'1312.4
2014-Apr-09 06:30N 59°40' E 024°06'1212.2
2014-Apr-09 05:33N 59°36' E 023°44'1212.4
2014-Apr-09 04:33N 59°32' E 023°21'  

Dump ship's entire track history

sailing weather and tide predictions

Jonni Ritscher — A8JT7 — position and weather